sensor_id;sensor_type;location;lat;lon;timestamp;pressure;altitude;pressure_sealevel;temperature;humidity
6514;BME280;3290;47.716;9.070;2023-04-27T00:00:23;97003.19;;;11.89;100.00
6514;BME280;3290;47.716;9.070;2023-04-27T00:02:49;97004.72;;;11.78;100.00
6514;BME280;3290;47.716;9.070;2023-04-27T00:05:14;96997.00;;;11.83;100.00
6514;BME280;3290;47.716;9.070;2023-04-27T00:07:40;96987.66;;;11.69;100.00
6514;BME280;3290;47.716;9.070;2023-04-27T00:10:06;96993.03;;;11.57;100.00
6514;BME280;3290;47.716;9.070;2023-04-27T00:12:32;96992.75;;;11.47;100.00
6514;BME280;3290;47.716;9.070;2023-04-27T00:14:57;96985.94;;;11.39;100.00
6514;BME280;3290;47.716;9.070;2023-04-27T00:17:22;96981.97;;;11.55;100.00
6514;BME280;3290;47.716;9.070;2023-04-27T00:19:48;96977.16;;;11.69;100.00
6514;BME280;3290;47.716;9.070;2023-04-27T00:22:13;96985.19;;;11.74;99.21
6514;BME280;3290;47.716;9.070;2023-04-27T00:24:39;96979.63;;;11.64;99.47
6514;BME280;3290;47.716;9.070;2023-04-27T00:27:06;96977.06;;;11.58;98.51
6514;BME280;3290;47.716;9.070;2023-04-27T00:29:31;96974.97;;;11.66;99.44
6514;BME280;3290;47.716;9.070;2023-04-27T00:31:56;96978.47;;;11.78;99.77
6514;BME280;3290;47.716;9.070;2023-04-27T00:34:22;96976.72;;;11.90;99.37
6514;BME280;3290;47.716;9.070;2023-04-27T00:36:47;96979.75;;;11.87;98.84
6514;BME280;3290;47.716;9.070;2023-04-27T00:39:12;96987.56;;;11.58;99.74
6514;BME280;3290;47.716;9.070;2023-04-27T00:41:38;96982.84;;;11.66;100.00
6514;BME280;3290;47.716;9.070;2023-04-27T00:44:04;96985.84;;;11.52;100.00
6514;BME280;3290;47.716;9.070;2023-04-27T00:46:29;96980.78;;;11.86;100.00
6514;BME280;3290;47.716;9.070;2023-04-27T00:48:55;96991.22;;;11.93;100.00
6514;BME280;3290;47.716;9.070;2023-04-27T00:51:21;96987.44;;;11.89;100.00
6514;BME280;3290;47.716;9.070;2023-04-27T00:53:48;96978.03;;;11.81;100.00
6514;BME280;3290;47.716;9.070;2023-04-27T00:56:15;96978.75;;;11.88;100.00
6514;BME280;3290;47.716;9.070;2023-04-27T00:58:40;96986.91;;;11.98;100.00
6514;BME280;3290;47.716;9.070;2023-04-27T01:01:06;96986.97;;;12.09;99.52
6514;BME280;3290;47.716;9.070;2023-04-27T01:03:31;96982.41;;;11.87;100.00
6514;BME280;3290;47.716;9.070;2023-04-27T01:05:57;96989.69;;;11.85;100.00
6514;BME280;3290;47.716;9.070;2023-04-27T01:08:26;96988.53;;;11.81;100.00
6514;BME280;3290;47.716;9.070;2023-04-27T01:10:51;96992.03;;;11.58;100.00
6514;BME280;3290;47.716;9.070;2023-04-27T01:13:17;96987.16;;;11.37;100.00
6514;BME280;3290;47.716;9.070;2023-04-27T01:15:42;96989.81;;;11.55;100.00
6514;BME280;3290;47.716;9.070;2023-04-27T01:18:07;96987.34;;;11.59;100.00
6514;BME280;3290;47.716;9.070;2023-04-27T01:20:33;96983.69;;;11.43;100.00
6514;BME280;3290;47.716;9.070;2023-04-27T01:23:00;96983.09;;;11.41;100.00
6514;BME280;3290;47.716;9.070;2023-04-27T01:25:26;96978.19;;;11.26;100.00
6514;BME280;3290;47.716;9.070;2023-04-27T01:27:51;96979.38;;;11.30;100.00
6514;BME280;3290;47.716;9.070;2023-04-27T01:30:18;96983.44;;;11.26;100.00
6514;BME280;3290;47.716;9.070;2023-04-27T01:32:43;96974.59;;;11.45;100.00
6514;BME280;3290;47.716;9.070;2023-04-27T01:35:09;96974.78;;;11.26;100.00
6514;BME280;3290;47.716;9.070;2023-04-27T01:37:34;96971.75;;;11.05;100.00
6514;BME280;3290;47.716;9.070;2023-04-27T01:40:00;96971.56;;;11.06;100.00
6514;BME280;3290;47.716;9.070;2023-04-27T01:42:25;96971.72;;;11.11;100.00
6514;BME280;3290;47.716;9.070;2023-04-27T01:44:51;96978.75;;;11.11;100.00
6514;BME280;3290;47.716;9.070;2023-04-27T01:47:16;96974.19;;;11.06;100.00
6514;BME280;3290;47.716;9.070;2023-04-27T01:49:42;96976.50;;;11.14;100.00
6514;BME280;3290;47.716;9.070;2023-04-27T01:52:08;96976.09;;;11.17;100.00
6514;BME280;3290;47.716;9.070;2023-04-27T01:54:33;96976.53;;;11.32;100.00
6514;BME280;3290;47.716;9.070;2023-04-27T01:56:59;96980.97;;;11.31;100.00
6514;BME280;3290;47.716;9.070;2023-04-27T01:59:26;96978.97;;;11.51;100.00
6514;BME280;3290;47.716;9.070;2023-04-27T02:01:52;96978.97;;;11.51;100.00
6514;BME280;3290;47.716;9.070;2023-04-27T02:04:17;96975.72;;;11.31;100.00
6514;BME280;3290;47.716;9.070;2023-04-27T02:06:43;96987.88;;;11.26;100.00
6514;BME280;3290;47.716;9.070;2023-04-27T02:09:08;96983.53;;;11.20;100.00
6514;BME280;3290;47.716;9.070;2023-04-27T02:11:33;96991.38;;;11.20;100.00
6514;BME280;3290;47.716;9.070;2023-04-27T02:13:59;96990.94;;;11.23;100.00
6514;BME280;3290;47.716;9.070;2023-04-27T02:16:25;96985.47;;;11.24;100.00
6514;BME280;3290;47.716;9.070;2023-04-27T02:18:50;96983.53;;;11.20;100.00
6514;BME280;3290;47.716;9.070;2023-04-27T02:21:17;96984.38;;;11.14;100.00
6514;BME280;3290;47.716;9.070;2023-04-27T02:23:43;96981.19;;;10.88;100.00
6514;BME280;3290;47.716;9.070;2023-04-27T02:26:15;96985.09;;;11.03;100.00
6514;BME280;3290;47.716;9.070;2023-04-27T02:28:41;96985.34;;;10.95;100.00
6514;BME280;3290;47.716;9.070;2023-04-27T02:31:07;96983.69;;;11.01;100.00
6514;BME280;3290;47.716;9.070;2023-04-27T02:33:32;96984.75;;;10.93;100.00
6514;BME280;3290;47.716;9.070;2023-04-27T02:35:57;96987.66;;;11.10;100.00
6514;BME280;3290;47.716;9.070;2023-04-27T02:38:23;96984.31;;;11.20;100.00
6514;BME280;3290;47.716;9.070;2023-04-27T02:40:52;96984.06;;;11.04;100.00
6514;BME280;3290;47.716;9.070;2023-04-27T02:43:18;96987.56;;;11.16;100.00
6514;BME280;3290;47.716;9.070;2023-04-27T02:45:44;96984.06;;;11.04;100.00
6514;BME280;3290;47.716;9.070;2023-04-27T02:48:09;96991.13;;;11.04;100.00
6514;BME280;3290;47.716;9.070;2023-04-27T02:50:39;96994.22;;;10.94;100.00
6514;BME280;3290;47.716;9.070;2023-04-27T02:53:05;97000.75;;;11.10;100.00
6514;BME280;3290;47.716;9.070;2023-04-27T02:55:30;96995.09;;;10.88;100.00
6514;BME280;3290;47.716;9.070;2023-04-27T02:57:55;96999.16;;;10.84;100.00
6514;BME280;3290;47.716;9.070;2023-04-27T03:00:21;96990.66;;;10.89;100.00
6514;BME280;3290;47.716;9.070;2023-04-27T03:02:47;96996.44;;;10.97;100.00
6514;BME280;3290;47.716;9.070;2023-04-27T03:05:12;96994.06;;;10.89;100.00
6514;BME280;3290;47.716;9.070;2023-04-27T03:07:37;96993.81;;;10.97;100.00
6514;BME280;3290;47.716;9.070;2023-04-27T03:10:03;96991.66;;;10.88;100.00
6514;BME280;3290;47.716;9.070;2023-04-27T03:12:29;96997.09;;;10.86;100.00
6514;BME280;3290;47.716;9.070;2023-04-27T03:14:54;96998.72;;;10.87;100.00
6514;BME280;3290;47.716;9.070;2023-04-27T03:17:19;97007.22;;;10.83;100.00
6514;BME280;3290;47.716;9.070;2023-04-27T03:19:46;97003.22;;;10.80;100.00
6514;BME280;3290;47.716;9.070;2023-04-27T03:22:12;96996.09;;;10.87;100.00
6514;BME280;3290;47.716;9.070;2023-04-27T03:24:37;96998.59;;;11.00;100.00
6514;BME280;3290;47.716;9.070;2023-04-27T03:27:02;96999.47;;;10.94;100.00
6514;BME280;3290;47.716;9.070;2023-04-27T03:29:28;97007.59;;;10.86;100.00
6514;BME280;3290;47.716;9.070;2023-04-27T03:31:53;97011.34;;;10.97;100.00
6514;BME280;3290;47.716;9.070;2023-04-27T03:34:19;97011.09;;;11.05;100.00
6514;BME280;3290;47.716;9.070;2023-04-27T03:36:45;97012.31;;;11.02;100.00
6514;BME280;3290;47.716;9.070;2023-04-27T03:39:11;97005.78;;;11.11;100.00
6514;BME280;3290;47.716;9.070;2023-04-27T03:41:36;97014.09;;;11.08;100.00
6514;BME280;3290;47.716;9.070;2023-04-27T03:44:02;97013.13;;;11.03;100.00
6514;BME280;3290;47.716;9.070;2023-04-27T03:46:27;97010.72;;;11.01;100.00
6514;BME280;3290;47.716;9.070;2023-04-27T03:48:52;97012.59;;;10.94;100.00
6514;BME280;3290;47.716;9.070;2023-04-27T03:51:18;97016.44;;;10.92;100.00
6514;BME280;3290;47.716;9.070;2023-04-27T03:53:43;97016.06;;;10.88;100.00
6514;BME280;3290;47.716;9.070;2023-04-27T03:56:09;97011.94;;;10.99;100.00
6514;BME280;3290;47.716;9.070;2023-04-27T03:58:34;97010.06;;;10.81;100.00
6514;BME280;3290;47.716;9.070;2023-04-27T04:01:00;97012.31;;;10.78;100.00
6514;BME280;3290;47.716;9.070;2023-04-27T04:03:25;97013.69;;;10.80;100.00
6514;BME280;3290;47.716;9.070;2023-04-27T04:05:50;97015.16;;;11.01;100.00
6514;BME280;3290;47.716;9.070;2023-04-27T04:08:16;97010.59;;;10.90;100.00
6514;BME280;3290;47.716;9.070;2023-04-27T04:10:41;97012.59;;;10.94;100.00
6514;BME280;3290;47.716;9.070;2023-04-27T04:13:06;97015.72;;;10.78;100.00
6514;BME280;3290;47.716;9.070;2023-04-27T04:15:32;97015.22;;;10.94;100.00
6514;BME280;3290;47.716;9.070;2023-04-27T04:17:57;97019.28;;;10.90;100.00
6514;BME280;3290;47.716;9.070;2023-04-27T04:20:23;97017.34;;;11.04;100.00
6514;BME280;3290;47.716;9.070;2023-04-27T04:22:48;97017.75;;;11.25;100.00
6514;BME280;3290;47.716;9.070;2023-04-27T04:25:13;97028.84;;;11.27;100.00
6514;BME280;3290;47.716;9.070;2023-04-27T04:27:39;97024.94;;;11.36;100.00
6514;BME280;3290;47.716;9.070;2023-04-27T04:30:05;97024.06;;;11.42;100.00
6514;BME280;3290;47.716;9.070;2023-04-27T04:32:31;97024.44;;;11.45;100.00
6514;BME280;3290;47.716;9.070;2023-04-27T04:34:57;97027.25;;;11.44;100.00
6514;BME280;3290;47.716;9.070;2023-04-27T04:37:23;97026.94;;;11.34;100.00
6514;BME280;3290;47.716;9.070;2023-04-27T04:39:48;97028.41;;;11.30;100.00
6514;BME280;3290;47.716;9.070;2023-04-27T04:42:14;97024.97;;;11.29;100.00
6514;BME280;3290;47.716;9.070;2023-04-27T04:44:40;97021.94;;;11.32;100.00
6514;BME280;3290;47.716;9.070;2023-04-27T04:47:05;97024.19;;;11.29;100.00
6514;BME280;3290;47.716;9.070;2023-04-27T04:49:31;97026.22;;;11.27;100.00
6514;BME280;3290;47.716;9.070;2023-04-27T04:51:56;97029.69;;;11.21;100.00
6514;BME280;3290;47.716;9.070;2023-04-27T04:54:22;97030.81;;;11.07;100.00
6514;BME280;3290;47.716;9.070;2023-04-27T04:56:47;97029.31;;;10.93;100.00
6514;BME280;3290;47.716;9.070;2023-04-27T04:59:13;97031.94;;;11.18;100.00
6514;BME280;3290;47.716;9.070;2023-04-27T05:01:38;97031.09;;;11.23;100.00
6514;BME280;3290;47.716;9.070;2023-04-27T05:04:03;97030.88;;;11.01;100.00
6514;BME280;3290;47.716;9.070;2023-04-27T05:06:29;97032.91;;;10.99;100.00
6514;BME280;3290;47.716;9.070;2023-04-27T05:08:54;97033.09;;;11.21;100.00
6514;BME280;3290;47.716;9.070;2023-04-27T05:11:20;97028.03;;;11.26;100.00
6514;BME280;3290;47.716;9.070;2023-04-27T05:13:46;97034.19;;;11.14;100.00
6514;BME280;3290;47.716;9.070;2023-04-27T05:16:12;97030.75;;;11.38;100.00
6514;BME280;3290;47.716;9.070;2023-04-27T05:18:37;97036.22;;;11.60;100.00
6514;BME280;3290;47.716;9.070;2023-04-27T05:21:02;97033.00;;;11.59;100.00
6514;BME280;3290;47.716;9.070;2023-04-27T05:23:28;97033.00;;;11.59;100.00
6514;BME280;3290;47.716;9.070;2023-04-27T05:25:53;97028.13;;;11.62;100.00
6514;BME280;3290;47.716;9.070;2023-04-27T05:28:18;97033.22;;;11.57;100.00
6514;BME280;3290;47.716;9.070;2023-04-27T05:30:44;97033.88;;;11.70;100.00
6514;BME280;3290;47.716;9.070;2023-04-27T05:33:09;97033.88;;;11.70;100.00
6514;BME280;3290;47.716;9.070;2023-04-27T05:35:35;97030.16;;;11.78;100.00
6514;BME280;3290;47.716;9.070;2023-04-27T05:38:00;97039.84;;;11.77;100.00
6514;BME280;3290;47.716;9.070;2023-04-27T05:40:26;97035.69;;;11.88;100.00
6514;BME280;3290;47.716;9.070;2023-04-27T05:42:51;97038.97;;;12.01;100.00
6514;BME280;3290;47.716;9.070;2023-04-27T05:45:17;97045.31;;;12.11;98.54
6514;BME280;3290;47.716;9.070;2023-04-27T05:47:42;97040.03;;;12.29;96.72
6514;BME280;3290;47.716;9.070;2023-04-27T05:50:08;97042.09;;;12.27;96.76
6514;BME280;3290;47.716;9.070;2023-04-27T05:52:33;97050.00;;;12.09;97.36
6514;BME280;3290;47.716;9.070;2023-04-27T05:54:59;97055.72;;;12.18;96.25
6514;BME280;3290;47.716;9.070;2023-04-27T05:57:24;97054.47;;;12.38;94.40
6514;BME280;3290;47.716;9.070;2023-04-27T05:59:50;97049.63;;;12.53;92.00
6514;BME280;3290;47.716;9.070;2023-04-27T06:02:16;97059.16;;;12.65;92.12
6514;BME280;3290;47.716;9.070;2023-04-27T06:04:42;97051.97;;;12.72;89.95
6514;BME280;3290;47.716;9.070;2023-04-27T06:07:08;97060.09;;;12.71;89.79
6514;BME280;3290;47.716;9.070;2023-04-27T06:09:33;97061.88;;;12.88;89.17
6514;BME280;3290;47.716;9.070;2023-04-27T06:11:59;97053.88;;;12.94;89.64
6514;BME280;3290;47.716;9.070;2023-04-27T06:14:24;97061.81;;;13.17;89.15
6514;BME280;3290;47.716;9.070;2023-04-27T06:16:50;97054.56;;;12.90;89.10
6514;BME280;3290;47.716;9.070;2023-04-27T06:19:15;97052.31;;;13.05;90.08
6514;BME280;3290;47.716;9.070;2023-04-27T06:21:41;97057.78;;;12.92;90.55
6514;BME280;3290;47.716;9.070;2023-04-27T06:24:06;97052.31;;;13.05;89.41
6514;BME280;3290;47.716;9.070;2023-04-27T06:26:31;97051.78;;;13.48;88.03
6514;BME280;3290;47.716;9.070;2023-04-27T06:28:57;97055.63;;;13.12;87.77
6514;BME280;3290;47.716;9.070;2023-04-27T06:31:24;97060.69;;;13.13;88.00
6514;BME280;3290;47.716;9.070;2023-04-27T06:33:49;97056.09;;;13.09;87.57
6514;BME280;3290;47.716;9.070;2023-04-27T06:36:15;97054.16;;;13.16;87.87
6514;BME280;3290;47.716;9.070;2023-04-27T06:38:40;97052.59;;;13.37;87.60
6514;BME280;3290;47.716;9.070;2023-04-27T06:41:06;97056.94;;;13.55;88.06
6514;BME280;3290;47.716;9.070;2023-04-27T06:43:31;97065.06;;;13.53;88.30
6514;BME280;3290;47.716;9.070;2023-04-27T06:45:56;97060.94;;;13.46;87.05
6514;BME280;3290;47.716;9.070;2023-04-27T06:48:22;97069.63;;;13.92;83.91
6514;BME280;3290;47.716;9.070;2023-04-27T06:50:47;97071.13;;;13.42;86.90
6514;BME280;3290;47.716;9.070;2023-04-27T06:53:12;97066.66;;;13.43;87.08
6514;BME280;3290;47.716;9.070;2023-04-27T06:55:38;97074.19;;;13.73;85.27
6514;BME280;3290;47.716;9.070;2023-04-27T06:58:04;97079.38;;;13.57;86.09
6514;BME280;3290;47.716;9.070;2023-04-27T07:00:30;97074.31;;;13.56;87.21
6514;BME280;3290;47.716;9.070;2023-04-27T07:02:56;97074.41;;;14.17;84.54
6514;BME280;3290;47.716;9.070;2023-04-27T07:05:21;97079.28;;;14.37;83.72
6514;BME280;3290;47.716;9.070;2023-04-27T07:07:47;97069.91;;;14.29;86.20
6514;BME280;3290;47.716;9.070;2023-04-27T07:10:12;97075.00;;;14.47;83.08
6514;BME280;3290;47.716;9.070;2023-04-27T07:12:38;97083.47;;;14.60;82.29
6514;BME280;3290;47.716;9.070;2023-04-27T07:15:04;97086.94;;;14.49;81.65
6514;BME280;3290;47.716;9.070;2023-04-27T07:17:31;97080.34;;;14.36;81.13
6514;BME280;3290;47.716;9.070;2023-04-27T07:19:57;97079.25;;;14.48;81.05
6514;BME280;3290;47.716;9.070;2023-04-27T07:22:22;97086.78;;;14.28;82.76
6514;BME280;3290;47.716;9.070;2023-04-27T07:24:48;97085.66;;;13.79;83.51
6514;BME280;3290;47.716;9.070;2023-04-27T07:27:13;97078.66;;;13.96;83.45
6514;BME280;3290;47.716;9.070;2023-04-27T07:29:39;97086.53;;;14.30;81.84
6514;BME280;3290;47.716;9.070;2023-04-27T07:32:08;97078.34;;;14.03;83.63
6514;BME280;3290;47.716;9.070;2023-04-27T07:34:33;97081.66;;;13.65;84.83
6514;BME280;3290;47.716;9.070;2023-04-27T07:36:59;97075.34;;;13.66;85.60
6514;BME280;3290;47.716;9.070;2023-04-27T07:39:26;97076.84;;;13.85;85.15
6514;BME280;3290;47.716;9.070;2023-04-27T07:41:52;97084.19;;;14.05;83.97
6514;BME280;3290;47.716;9.070;2023-04-27T07:44:18;97079.34;;;13.80;83.99
6514;BME280;3290;47.716;9.070;2023-04-27T07:46:46;97087.59;;;13.95;83.07
6514;BME280;3290;47.716;9.070;2023-04-27T07:49:13;97082.59;;;14.43;82.09
6514;BME280;3290;47.716;9.070;2023-04-27T07:51:39;97090.41;;;14.94;80.66
6514;BME280;3290;47.716;9.070;2023-04-27T07:54:04;97082.13;;;14.74;78.33
6514;BME280;3290;47.716;9.070;2023-04-27T07:56:31;97083.78;;;15.19;76.95
6514;BME280;3290;47.716;9.070;2023-04-27T07:58:57;97091.13;;;14.89;75.20
6514;BME280;3290;47.716;9.070;2023-04-27T08:01:23;97092.19;;;15.05;74.96
6514;BME280;3290;47.716;9.070;2023-04-27T08:03:48;97082.25;;;14.79;76.44
6514;BME280;3290;47.716;9.070;2023-04-27T08:06:14;97083.56;;;15.09;75.73
6514;BME280;3290;47.716;9.070;2023-04-27T08:08:40;97091.16;;;15.06;79.28
6514;BME280;3290;47.716;9.070;2023-04-27T08:11:08;97086.47;;;15.24;77.79
6514;BME280;3290;47.716;9.070;2023-04-27T08:13:34;97088.34;;;14.96;76.22
6514;BME280;3290;47.716;9.070;2023-04-27T08:16:00;97079.47;;;15.46;74.81
6514;BME280;3290;47.716;9.070;2023-04-27T08:18:25;97086.81;;;15.60;74.52
6514;BME280;3290;47.716;9.070;2023-04-27T08:20:51;97082.00;;;15.73;74.62
6514;BME280;3290;47.716;9.070;2023-04-27T08:23:16;97083.84;;;16.27;73.17
6514;BME280;3290;47.716;9.070;2023-04-27T08:25:42;97074.25;;;16.89;72.03
6514;BME280;3290;47.716;9.070;2023-04-27T08:28:07;97079.09;;;15.91;70.08
6514;BME280;3290;47.716;9.070;2023-04-27T08:30:33;97081.94;;;16.22;70.84
6514;BME280;3290;47.716;9.070;2023-04-27T08:32:58;97080.75;;;16.56;68.98
6514;BME280;3290;47.716;9.070;2023-04-27T08:35:23;97076.28;;;15.44;70.58
6514;BME280;3290;47.716;9.070;2023-04-27T08:37:49;97075.03;;;15.67;70.91
6514;BME280;3290;47.716;9.070;2023-04-27T08:40:14;97076.63;;;16.65;68.83
6514;BME280;3290;47.716;9.070;2023-04-27T08:42:52;97084.06;;;16.46;70.90
6514;BME280;3290;47.716;9.070;2023-04-27T08:45:18;97078.13;;;16.56;71.51
6514;BME280;3290;47.716;9.070;2023-04-27T08:47:44;97078.63;;;16.32;70.34
6514;BME280;3290;47.716;9.070;2023-04-27T08:50:11;97079.09;;;16.29;70.95
6514;BME280;3290;47.716;9.070;2023-04-27T08:52:37;97083.91;;;15.94;71.88
6514;BME280;3290;47.716;9.070;2023-04-27T08:55:02;97076.66;;;16.06;70.54
6514;BME280;3290;47.716;9.070;2023-04-27T08:57:29;97076.19;;;16.51;71.04
6514;BME280;3290;47.716;9.070;2023-04-27T08:59:58;97078.06;;;16.30;71.49
6514;BME280;3290;47.716;9.070;2023-04-27T09:02:31;97076.50;;;16.55;71.64
6514;BME280;3290;47.716;9.070;2023-04-27T09:04:57;97082.72;;;15.69;71.85
6514;BME280;3290;47.716;9.070;2023-04-27T09:07:23;97088.16;;;16.33;70.54
6514;BME280;3290;47.716;9.070;2023-04-27T09:09:49;97090.19;;;16.26;72.26
6514;BME280;3290;47.716;9.070;2023-04-27T09:12:19;97073.13;;;16.59;70.82
6514;BME280;3290;47.716;9.070;2023-04-27T09:14:59;97078.50;;;16.69;71.71
6514;BME280;3290;47.716;9.070;2023-04-27T09:17:28;97079.59;;;16.26;68.80
6514;BME280;3290;47.716;9.070;2023-04-27T09:20:09;97070.22;;;16.40;68.91
6514;BME280;3290;47.716;9.070;2023-04-27T09:22:53;97070.72;;;15.99;70.00
6514;BME280;3290;47.716;9.070;2023-04-27T09:25:31;97066.97;;;17.01;67.62
6514;BME280;3290;47.716;9.070;2023-04-27T09:27:58;97064.28;;;17.54;67.45
6514;BME280;3290;47.716;9.070;2023-04-27T09:30:28;97066.75;;;17.08;64.99
6514;BME280;3290;47.716;9.070;2023-04-27T09:32:55;97061.53;;;17.80;64.51
6514;BME280;3290;47.716;9.070;2023-04-27T09:35:26;97055.84;;;18.03;63.58
6514;BME280;3290;47.716;9.070;2023-04-27T09:37:52;97052.47;;;18.83;59.62
6514;BME280;3290;47.716;9.070;2023-04-27T09:40:19;97043.97;;;18.85;60.67
6514;BME280;3290;47.716;9.070;2023-04-27T09:42:47;97044.78;;;18.91;59.50
6514;BME280;3290;47.716;9.070;2023-04-27T09:45:13;97049.25;;;18.71;61.60
6514;BME280;3290;47.716;9.070;2023-04-27T09:47:39;97054.63;;;18.90;58.49
6514;BME280;3290;47.716;9.070;2023-04-27T09:50:06;97041.16;;;19.22;58.05
6514;BME280;3290;47.716;9.070;2023-04-27T09:52:32;97051.22;;;19.10;57.23
6514;BME280;3290;47.716;9.070;2023-04-27T09:54:58;97053.91;;;19.15;56.83
6514;BME280;3290;47.716;9.070;2023-04-27T10:00:05;97053.06;;;20.03;54.57
6514;BME280;3290;47.716;9.070;2023-04-27T10:02:44;97044.81;;;19.95;53.64
6514;BME280;3290;47.716;9.070;2023-04-27T10:05:37;97043.00;;;19.36;55.08
6514;BME280;3290;47.716;9.070;2023-04-27T10:08:08;97052.19;;;18.79;56.71
6514;BME280;3290;47.716;9.070;2023-04-27T10:10:47;97051.66;;;18.82;57.30
6514;BME280;3290;47.716;9.070;2023-04-27T10:13:20;97045.22;;;18.48;59.26
6514;BME280;3290;47.716;9.070;2023-04-27T10:15:47;97039.31;;;18.37;59.15
6514;BME280;3290;47.716;9.070;2023-04-27T10:18:12;97035.44;;;18.74;59.64
6514;BME280;3290;47.716;9.070;2023-04-27T10:20:48;97026.84;;;18.37;56.90
6514;BME280;3290;47.716;9.070;2023-04-27T10:23:24;97032.09;;;18.22;59.67
6514;BME280;3290;47.716;9.070;2023-04-27T10:25:49;97029.31;;;18.58;56.58
6514;BME280;3290;47.716;9.070;2023-04-27T10:28:16;97023.31;;;19.12;53.46
6514;BME280;3290;47.716;9.070;2023-04-27T10:30:47;97023.88;;;19.34;54.15
6514;BME280;3290;47.716;9.070;2023-04-27T10:33:18;97020.16;;;19.20;55.17
6514;BME280;3290;47.716;9.070;2023-04-27T10:35:54;97021.47;;;19.62;56.58
6514;BME280;3290;47.716;9.070;2023-04-27T10:38:25;97027.81;;;19.86;55.25
6514;BME280;3290;47.716;9.070;2023-04-27T10:41:01;97023.34;;;20.49;54.90
6514;BME280;3290;47.716;9.070;2023-04-27T10:43:30;97011.06;;;21.06;50.81
6514;BME280;3290;47.716;9.070;2023-04-27T10:46:12;97014.22;;;20.70;49.09
6514;BME280;3290;47.716;9.070;2023-04-27T10:48:39;97013.75;;;21.01;48.30
6514;BME280;3290;47.716;9.070;2023-04-27T10:51:05;97019.09;;;20.48;44.23
6514;BME280;3290;47.716;9.070;2023-04-27T10:53:35;97015.03;;;20.60;43.13
6514;BME280;3290;47.716;9.070;2023-04-27T10:56:00;97027.94;;;20.39;43.60
6514;BME280;3290;47.716;9.070;2023-04-27T10:58:26;97017.06;;;20.25;46.72
6514;BME280;3290;47.716;9.070;2023-04-27T11:00:51;97023.69;;;20.28;44.00
6514;BME280;3290;47.716;9.070;2023-04-27T11:03:18;97014.75;;;20.04;46.09
6514;BME280;3290;47.716;9.070;2023-04-27T11:05:45;97014.13;;;20.27;45.51
6514;BME280;3290;47.716;9.070;2023-04-27T11:08:18;97012.31;;;20.75;43.75
6514;BME280;3290;47.716;9.070;2023-04-27T11:10:48;97010.78;;;20.59;44.30
6514;BME280;3290;47.716;9.070;2023-04-27T11:13:22;97016.97;;;20.98;43.43
6514;BME280;3290;47.716;9.070;2023-04-27T11:15:49;96998.53;;;21.39;43.35
6514;BME280;3290;47.716;9.070;2023-04-27T11:18:19;97006.41;;;21.21;41.91
6514;BME280;3290;47.716;9.070;2023-04-27T11:20:48;96996.91;;;21.71;41.61
6514;BME280;3290;47.716;9.070;2023-04-27T11:23:26;96997.38;;;21.50;42.15
6514;BME280;3290;47.716;9.070;2023-04-27T11:25:53;96995.13;;;22.13;41.70
6514;BME280;3290;47.716;9.070;2023-04-27T11:28:20;96996.41;;;21.41;43.43
6514;BME280;3290;47.716;9.070;2023-04-27T11:30:46;96993.34;;;21.58;42.59
6514;BME280;3290;47.716;9.070;2023-04-27T11:33:13;96996.84;;;21.53;40.72
6514;BME280;3290;47.716;9.070;2023-04-27T11:35:39;97000.72;;;21.32;40.61
6514;BME280;3290;47.716;9.070;2023-04-27T11:38:06;96997.38;;;21.50;41.23
6514;BME280;3290;47.716;9.070;2023-04-27T11:40:32;96999.22;;;21.22;41.37
6514;BME280;3290;47.716;9.070;2023-04-27T11:43:00;96994.84;;;21.35;41.92
6514;BME280;3290;47.716;9.070;2023-04-27T11:45:28;96995.59;;;21.08;41.06
6514;BME280;3290;47.716;9.070;2023-04-27T11:47:57;96997.97;;;21.09;41.90
6514;BME280;3290;47.716;9.070;2023-04-27T11:50:23;96990.00;;;21.04;40.72
6514;BME280;3290;47.716;9.070;2023-04-27T11:52:50;96999.53;;;20.77;39.54
6514;BME280;3290;47.716;9.070;2023-04-27T11:55:19;96990.00;;;21.04;39.18
6514;BME280;3290;47.716;9.070;2023-04-27T11:57:44;96991.75;;;21.19;38.67
6514;BME280;3290;47.716;9.070;2023-04-27T12:00:10;96995.56;;;21.97;39.01
6514;BME280;3290;47.716;9.070;2023-04-27T12:02:36;96991.38;;;21.91;39.30
6514;BME280;3290;47.716;9.070;2023-04-27T12:05:03;96988.72;;;21.02;40.88
6514;BME280;3290;47.716;9.070;2023-04-27T12:07:28;96989.69;;;21.16;39.91
6514;BME280;3290;47.716;9.070;2023-04-27T12:09:54;96998.94;;;20.85;39.73
6514;BME280;3290;47.716;9.070;2023-04-27T12:12:20;96994.69;;;20.31;40.99
6514;BME280;3290;47.716;9.070;2023-04-27T12:14:49;96989.84;;;20.38;41.35
6514;BME280;3290;47.716;9.070;2023-04-27T12:17:14;96990.97;;;20.27;42.09
6514;BME280;3290;47.716;9.070;2023-04-27T12:19:40;96982.53;;;20.68;42.00
6514;BME280;3290;47.716;9.070;2023-04-27T12:22:05;96980.88;;;20.24;42.22
6514;BME280;3290;47.716;9.070;2023-04-27T12:24:31;96982.47;;;20.25;42.16
6514;BME280;3290;47.716;9.070;2023-04-27T12:26:57;96980.19;;;19.99;43.97
6514;BME280;3290;47.716;9.070;2023-04-27T12:29:23;96971.22;;;19.46;44.81
6514;BME280;3290;47.716;9.070;2023-04-27T12:31:49;96971.44;;;19.84;44.44
6514;BME280;3290;47.716;9.070;2023-04-27T12:34:15;96970.78;;;20.21;44.67
6514;BME280;3290;47.716;9.070;2023-04-27T12:36:40;96971.19;;;19.70;45.73
6514;BME280;3290;47.716;9.070;2023-04-27T12:39:17;96976.22;;;19.92;45.06
6514;BME280;3290;47.716;9.070;2023-04-27T12:41:47;96964.97;;;20.09;44.92
6514;BME280;3290;47.716;9.070;2023-04-27T12:44:13;96963.63;;;20.12;44.34
6514;BME280;3290;47.716;9.070;2023-04-27T12:46:40;96960.34;;;20.83;45.10
6514;BME280;3290;47.716;9.070;2023-04-27T12:49:07;96962.38;;;21.28;42.62
6514;BME280;3290;47.716;9.070;2023-04-27T12:51:33;96953.47;;;21.43;41.89
6514;BME280;3290;47.716;9.070;2023-04-27T12:53:59;96955.78;;;22.24;41.60
6514;BME280;3290;47.716;9.070;2023-04-27T12:56:24;96957.47;;;22.38;41.70
6514;BME280;3290;47.716;9.070;2023-04-27T12:58:49;96957.72;;;21.44;41.08
6514;BME280;3290;47.716;9.070;2023-04-27T13:01:15;96960.50;;;20.96;42.48
6514;BME280;3290;47.716;9.070;2023-04-27T13:03:45;96959.91;;;20.13;42.92
6514;BME280;3290;47.716;9.070;2023-04-27T13:06:11;96957.31;;;20.51;43.42
6514;BME280;3290;47.716;9.070;2023-04-27T13:08:37;96954.56;;;20.23;43.84
6514;BME280;3290;47.716;9.070;2023-04-27T13:11:02;96944.19;;;20.69;44.35
6514;BME280;3290;47.716;9.070;2023-04-27T13:13:28;96947.66;;;21.03;43.18
6514;BME280;3290;47.716;9.070;2023-04-27T13:15:53;96948.09;;;21.15;43.13